createdAt,value
2022-07-26T00:00:14.881Z,7.90
2022-07-26T00:02:47.928Z,7.80
2022-07-26T00:05:17.099Z,7.18
2022-07-26T00:07:44.812Z,6.07
2022-07-26T00:10:12.757Z,6.25
2022-07-26T00:12:40.395Z,6.18
2022-07-26T00:15:10.180Z,6.50
2022-07-26T00:17:37.864Z,5.57
2022-07-26T00:20:05.791Z,4.95
2022-07-26T00:22:35.972Z,7.88
2022-07-26T00:25:06.509Z,7.18
2022-07-26T00:27:37.443Z,4.88
2022-07-26T00:30:07.157Z,6.32
2022-07-26T00:32:34.563Z,4.60
2022-07-26T00:35:01.813Z,4.47
2022-07-26T00:37:30.929Z,6.45
2022-07-26T00:39:58.183Z,6.78
2022-07-26T00:42:25.335Z,4.20
2022-07-26T00:44:52.599Z,4.78
2022-07-26T00:47:20.020Z,4.10
2022-07-26T00:49:47.304Z,4.57
2022-07-26T00:52:14.742Z,4.75
2022-07-26T00:54:45.987Z,4.35
2022-07-26T00:57:14.244Z,4.55
2022-07-26T00:59:41.786Z,5.30
2022-07-26T01:02:10.316Z,3.97
2022-07-26T01:04:37.777Z,5.22
2022-07-26T01:07:15.058Z,4.20
2022-07-26T01:09:43.767Z,3.78
2022-07-26T01:12:11.488Z,6.15
2022-07-26T01:14:38.665Z,5.57
2022-07-26T01:17:05.970Z,4.57
2022-07-26T01:19:33.535Z,4.20
2022-07-26T01:22:01.877Z,5.32
2022-07-26T01:24:29.283Z,4.18
2022-07-26T01:26:57.157Z,5.13
2022-07-26T01:29:34.623Z,4.43
2022-07-26T01:32:05.225Z,4.40
2022-07-26T01:34:32.636Z,4.75
2022-07-26T01:37:00.368Z,4.65
2022-07-26T01:39:29.237Z,4.20
2022-07-26T01:41:57.035Z,4.65
2022-07-26T01:44:24.616Z,4.72
2022-07-26T01:46:52.079Z,6.05
2022-07-26T01:49:19.695Z,6.10
2022-07-26T01:51:47.143Z,4.57
2022-07-26T01:54:14.679Z,6.93
2022-07-26T01:56:49.929Z,5.10
2022-07-26T01:59:17.136Z,5.35
2022-07-26T02:01:44.470Z,5.93
2022-07-26T02:04:31.653Z,4.82
2022-07-26T02:06:58.968Z,6.72
2022-07-26T02:09:26.093Z,5.30
2022-07-26T02:11:56.156Z,4.25
2022-07-26T02:14:25.594Z,6.25
2022-07-26T02:17:00.060Z,4.72
2022-07-26T02:19:31.718Z,5.88
2022-07-26T02:21:59.854Z,5.07
2022-07-26T02:24:29.219Z,4.35
2022-07-26T02:26:57.763Z,4.97
2022-07-26T02:29:25.746Z,5.55
2022-07-26T02:31:54.975Z,6.03
2022-07-26T02:34:22.273Z,4.45
2022-07-26T02:36:50.159Z,7.53
2022-07-26T02:39:17.675Z,8.93
2022-07-26T02:41:45.240Z,6.82
2022-07-26T02:44:12.628Z,8.25
2022-07-26T02:46:40.078Z,6.10
2022-07-26T02:49:07.694Z,7.07
2022-07-26T02:51:34.936Z,5.25
2022-07-26T02:54:02.373Z,4.80
2022-07-26T02:56:30.143Z,6.35
2022-07-26T02:58:58.516Z,6.57
2022-07-26T03:01:25.804Z,5.53
2022-07-26T03:03:53.195Z,5.57
2022-07-26T03:06:20.504Z,5.47
2022-07-26T03:08:48.705Z,8.85
2022-07-26T03:11:16.356Z,7.28
2022-07-26T03:13:43.671Z,7.50
2022-07-26T03:16:10.964Z,5.72
2022-07-26T03:18:39.164Z,7.03
2022-07-26T03:21:06.861Z,9.05
2022-07-26T03:23:35.146Z,6.30
2022-07-26T03:26:03.374Z,5.07
2022-07-26T03:28:31.819Z,6.03
2022-07-26T03:30:59.461Z,8.73
2022-07-26T03:33:26.819Z,4.95
2022-07-26T03:35:54.309Z,4.68
2022-07-26T03:38:22.355Z,4.22
2022-07-26T03:40:49.631Z,7.28
2022-07-26T03:43:20.084Z,6.82
2022-07-26T03:45:50.929Z,5.32
2022-07-26T03:48:21.489Z,6.20
2022-07-26T03:50:48.656Z,4.47
2022-07-26T03:53:15.908Z,6.75
2022-07-26T03:56:01.702Z,6.45
2022-07-26T03:58:28.980Z,6.00
2022-07-26T04:00:56.193Z,8.48
2022-07-26T04:03:23.383Z,7.45
2022-07-26T04:05:50.623Z,7.45
2022-07-26T04:08:20.065Z,5.13
2022-07-26T04:10:51.429Z,5.32
2022-07-26T04:13:20.020Z,5.88
2022-07-26T04:15:47.632Z,5.68
2022-07-26T04:18:15.294Z,6.13
2022-07-26T04:20:43.071Z,6.10
2022-07-26T04:23:11.583Z,5.95
2022-07-26T04:25:41.565Z,4.85
2022-07-26T04:28:10.466Z,5.45
2022-07-26T04:30:38.924Z,4.38
2022-07-26T04:33:06.594Z,5.32
2022-07-26T04:35:35.074Z,6.45
2022-07-26T04:38:02.702Z,6.25
2022-07-26T04:40:33.765Z,5.53
2022-07-26T04:43:02.287Z,5.32
2022-07-26T04:45:30.306Z,7.95
2022-07-26T04:47:58.069Z,5.90
2022-07-26T04:50:28.234Z,4.97
2022-07-26T04:52:56.379Z,4.97
2022-07-26T04:55:24.310Z,7.50
2022-07-26T04:57:51.956Z,4.95
2022-07-26T05:00:24.262Z,8.15
2022-07-26T05:02:59.390Z,5.47
2022-07-26T05:05:29.805Z,5.28
2022-07-26T05:08:02.973Z,8.23
2022-07-26T05:10:35.996Z,5.15
2022-07-26T05:13:06.092Z,5.38
2022-07-26T05:15:36.786Z,5.97
2022-07-26T05:18:10.321Z,5.40
2022-07-26T05:20:39.164Z,7.45
2022-07-26T05:23:06.870Z,7.25
2022-07-26T05:25:34.703Z,7.40
2022-07-26T05:28:02.266Z,4.85
2022-07-26T05:30:29.947Z,6.10
2022-07-26T05:32:57.267Z,9.75
2022-07-26T05:35:24.709Z,8.23
2022-07-26T05:37:51.989Z,7.80
2022-07-26T05:40:19.612Z,7.10
2022-07-26T05:42:49.119Z,6.93
2022-07-26T05:45:17.305Z,6.78
2022-07-26T05:47:44.577Z,7.18
2022-07-26T05:50:12.006Z,7.57
2022-07-26T05:52:39.796Z,7.60
2022-07-26T05:55:07.929Z,8.70
2022-07-26T05:57:35.320Z,7.28
2022-07-26T06:00:03.295Z,8.35
2022-07-26T06:02:43.798Z,8.52
2022-07-26T06:05:13.282Z,7.32
2022-07-26T06:07:40.516Z,7.97
2022-07-26T06:10:08.302Z,6.45
2022-07-26T06:12:36.049Z,7.38
2022-07-26T06:15:04.252Z,7.90
2022-07-26T06:17:43.426Z,6.82
2022-07-26T06:20:11.217Z,5.57
2022-07-26T06:22:38.505Z,7.47
2022-07-26T06:25:06.329Z,7.22
2022-07-26T06:27:33.550Z,8.65
2022-07-26T06:30:00.801Z,6.88
2022-07-26T06:32:28.167Z,5.68
2022-07-26T06:34:55.632Z,5.65
2022-07-26T06:37:23.208Z,6.13
2022-07-26T06:39:50.344Z,6.10
2022-07-26T06:42:17.697Z,5.30
2022-07-26T06:44:46.408Z,6.13
2022-07-26T06:47:14.453Z,4.95
2022-07-26T06:49:42.036Z,7.55
2022-07-26T06:52:09.255Z,7.55
2022-07-26T06:54:36.672Z,6.50
2022-07-26T06:57:06.454Z,5.60
2022-07-26T06:59:34.103Z,6.30
2022-07-26T07:02:04.419Z,5.43
2022-07-26T07:04:33.394Z,5.22
2022-07-26T07:07:05.134Z,7.10
2022-07-26T07:09:34.482Z,6.07
2022-07-26T07:12:10.307Z,6.50
2022-07-26T07:14:39.374Z,5.15
2022-07-26T07:17:12.173Z,6.13
2022-07-26T07:19:43.109Z,5.78
2022-07-26T07:22:12.533Z,6.10
2022-07-26T07:24:41.312Z,5.78
2022-07-26T07:27:10.602Z,5.22
2022-07-26T07:29:38.913Z,4.97
2022-07-26T07:32:09.034Z,7.10
2022-07-26T07:34:48.370Z,4.82
2022-07-26T07:37:16.904Z,5.65
2022-07-26T07:39:50.113Z,6.53
2022-07-26T07:42:19.480Z,4.70
2022-07-26T07:44:47.370Z,5.65
2022-07-26T07:47:14.933Z,3.65
2022-07-26T07:49:42.455Z,8.57
2022-07-26T07:52:09.774Z,7.13
2022-07-26T07:54:37.527Z,5.07
2022-07-26T07:57:05.507Z,4.65
2022-07-26T07:59:33.152Z,5.28
2022-07-26T08:02:06.881Z,5.07
2022-07-26T08:04:34.196Z,3.65
2022-07-26T08:07:01.431Z,5.57
2022-07-26T08:09:28.851Z,4.43
2022-07-26T08:11:56.425Z,6.18
2022-07-26T08:14:24.483Z,3.70
2022-07-26T08:16:52.347Z,5.97
2022-07-26T08:19:19.614Z,5.72
2022-07-26T08:21:49.870Z,7.45
2022-07-26T08:24:17.846Z,7.97
2022-07-26T08:26:45.137Z,7.03
2022-07-26T08:29:14.744Z,7.63
2022-07-26T08:31:43.001Z,6.85
2022-07-26T08:34:12.132Z,6.00
2022-07-26T08:36:49.597Z,7.35
2022-07-26T08:39:26.881Z,4.78
2022-07-26T08:41:54.564Z,5.18
2022-07-26T08:44:21.940Z,6.45
2022-07-26T08:46:49.387Z,5.68
2022-07-26T08:49:16.701Z,8.73
2022-07-26T08:51:44.816Z,6.05
2022-07-26T08:54:14.465Z,7.88
2022-07-26T08:56:49.900Z,6.50
2022-07-26T08:59:21.323Z,6.65
2022-07-26T09:02:08.138Z,7.15
2022-07-26T09:04:44.201Z,7.82
2022-07-26T09:07:17.568Z,5.63
2022-07-26T09:10:17.421Z,4.63
2022-07-26T09:12:45.505Z,4.53
2022-07-26T09:15:25.295Z,6.57
2022-07-26T09:17:55.854Z,8.20
2022-07-26T09:20:32.339Z,5.93
2022-07-26T09:23:06.979Z,6.67
2022-07-26T09:25:43.555Z,8.18
2022-07-26T09:28:30.539Z,8.13
2022-07-26T09:31:02.292Z,10.15
2022-07-26T09:33:50.457Z,4.97
2022-07-26T09:36:19.599Z,6.57
2022-07-26T09:38:53.456Z,4.85
2022-07-26T09:41:29.818Z,4.47
2022-07-26T09:44:01.848Z,3.75
2022-07-26T09:46:31.091Z,5.00
2022-07-26T09:49:16.626Z,4.35
2022-07-26T09:51:47.087Z,5.47
2022-07-26T09:54:29.687Z,5.05
2022-07-26T09:56:58.333Z,4.28
2022-07-26T09:59:29.971Z,3.95
2022-07-26T10:02:00.654Z,3.47
2022-07-26T10:04:30.813Z,3.92
2022-07-26T10:06:58.404Z,3.17
2022-07-26T10:09:31.678Z,3.65
2022-07-26T10:12:08.635Z,3.25
2022-07-26T10:14:45.668Z,3.63
2022-07-26T10:17:35.683Z,4.43
2022-07-26T10:20:10.730Z,4.57
2022-07-26T10:22:50.761Z,4.03
2022-07-26T10:25:18.209Z,4.27
2022-07-26T10:27:50.781Z,4.00
2022-07-26T10:30:22.713Z,3.75
2022-07-26T10:33:01.695Z,4.15
2022-07-26T10:35:35.111Z,3.42
2022-07-26T10:38:24.320Z,5.18
2022-07-26T10:41:03.578Z,3.17
2022-07-26T10:43:41.260Z,3.47
2022-07-26T10:46:31.133Z,4.30
2022-07-26T10:49:08.963Z,3.22
2022-07-26T10:51:41.722Z,3.58
2022-07-26T10:54:12.315Z,4.38
2022-07-26T10:56:41.021Z,3.90
2022-07-26T10:59:08.520Z,5.38
2022-07-26T11:01:43.441Z,3.70
2022-07-26T11:04:22.210Z,3.17
2022-07-26T11:06:50.129Z,5.05
2022-07-26T11:09:20.703Z,3.17
2022-07-26T11:11:49.076Z,2.83
2022-07-26T11:14:18.182Z,3.05
2022-07-26T11:16:52.811Z,3.25
2022-07-26T11:19:22.181Z,4.57
2022-07-26T11:22:00.254Z,2.67
2022-07-26T11:24:28.833Z,4.22
2022-07-26T11:26:57.263Z,2.83
2022-07-26T11:29:39.102Z,3.88
2022-07-26T11:32:25.430Z,4.75
2022-07-26T11:37:31.759Z,3.25
2022-07-26T11:39:59.166Z,3.78
2022-07-26T11:42:26.659Z,3.88
2022-07-26T11:44:54.410Z,4.28
2022-07-26T11:47:25.283Z,3.65
2022-07-26T11:50:12.853Z,2.75
2022-07-26T11:52:42.084Z,2.92
2022-07-26T11:55:10.245Z,2.70
2022-07-26T11:57:38.356Z,3.58
2022-07-26T12:00:06.583Z,4.32
2022-07-26T12:02:39.873Z,3.53
2022-07-26T12:05:15.554Z,4.45
2022-07-26T12:08:01.030Z,3.88
2022-07-26T12:10:29.028Z,3.67
2022-07-26T12:13:14.014Z,2.67
2022-07-26T12:15:50.428Z,4.40
2022-07-26T12:18:26.082Z,4.10
2022-07-26T12:21:06.043Z,3.47
2022-07-26T12:23:48.958Z,4.13
2022-07-26T12:26:23.765Z,4.05
2022-07-26T12:28:51.712Z,4.72
2022-07-26T12:31:27.023Z,3.20
2022-07-26T12:33:54.811Z,5.22
2022-07-26T12:36:28.468Z,3.00
2022-07-26T12:38:59.985Z,6.07
2022-07-26T12:41:39.329Z,6.32
2022-07-26T12:44:11.872Z,4.72
2022-07-26T12:46:40.359Z,5.47
2022-07-26T12:49:07.699Z,6.72
2022-07-26T12:51:35.160Z,6.30
2022-07-26T12:54:03.697Z,6.80
2022-07-26T12:56:31.231Z,19.08
2022-07-26T12:59:02.297Z,32.47
2022-07-26T13:01:32.773Z,27.20
2022-07-26T13:04:01.023Z,27.92
2022-07-26T13:06:28.534Z,32.30
2022-07-26T13:08:56.766Z,31.38
2022-07-26T13:11:25.142Z,16.48
2022-07-26T13:13:52.977Z,62.03
2022-07-26T13:16:20.318Z,49.95
2022-07-26T13:18:47.817Z,47.78
2022-07-26T13:21:15.051Z,38.85
2022-07-26T13:23:42.305Z,69.10
2022-07-26T13:26:09.557Z,84.68
2022-07-26T13:28:38.195Z,60.80
2022-07-26T13:31:06.016Z,98.10
2022-07-26T13:33:33.933Z,46.83
2022-07-26T13:36:01.275Z,59.85
2022-07-26T13:38:29.261Z,23.75
2022-07-26T13:40:56.670Z,9.35
2022-07-26T13:43:24.703Z,7.72
2022-07-26T13:45:52.054Z,12.68
2022-07-26T13:48:19.394Z,10.82
2022-07-26T13:50:46.906Z,8.70
2022-07-26T13:53:14.166Z,52.50
2022-07-26T13:55:41.519Z,41.00
2022-07-26T13:58:10.156Z,24.65
2022-07-26T14:00:38.399Z,11.40
2022-07-26T14:03:06.035Z,13.52
2022-07-26T14:05:33.830Z,11.27
2022-07-26T14:08:01.659Z,11.57
2022-07-26T14:10:28.765Z,11.15
2022-07-26T14:12:56.127Z,6.47
2022-07-26T14:15:24.135Z,7.18
2022-07-26T14:17:52.733Z,5.13
2022-07-26T14:20:21.679Z,10.85
2022-07-26T14:22:53.524Z,19.65
2022-07-26T14:25:22.478Z,10.15
2022-07-26T14:27:54.329Z,9.43
2022-07-26T14:30:22.777Z,9.35
2022-07-26T14:32:50.408Z,15.18
2022-07-26T14:35:18.066Z,22.73
2022-07-26T14:37:46.039Z,37.75
2022-07-26T14:40:17.781Z,60.05
2022-07-26T14:42:46.605Z,50.38
2022-07-26T14:45:15.098Z,40.65
2022-07-26T14:47:43.280Z,113.45
2022-07-26T14:50:12.323Z,155.10
2022-07-26T14:52:42.536Z,88.90
2022-07-26T14:55:11.225Z,40.92
2022-07-26T14:57:40.359Z,29.33
2022-07-26T15:00:11.267Z,25.65
2022-07-26T15:02:43.795Z,67.93
2022-07-26T15:05:12.980Z,139.40
2022-07-26T15:07:41.793Z,262.27
2022-07-26T15:10:11.287Z,160.90
2022-07-26T15:12:39.265Z,87.90
2022-07-26T15:15:07.769Z,40.22
2022-07-26T15:17:35.679Z,24.30
2022-07-26T15:20:04.063Z,22.85
2022-07-26T15:22:31.598Z,51.30
2022-07-26T15:24:58.883Z,361.38
2022-07-26T15:27:26.189Z,277.33
2022-07-26T15:29:53.502Z,52.80
2022-07-26T15:32:21.576Z,23.63
2022-07-26T15:34:49.187Z,11.20
2022-07-26T15:37:16.513Z,7.43
2022-07-26T15:39:46.707Z,6.82
2022-07-26T15:42:15.364Z,6.18
2022-07-26T15:44:42.976Z,8.98
2022-07-26T15:47:11.718Z,15.85
2022-07-26T15:49:40.283Z,7.90
2022-07-26T15:52:11.599Z,7.47
2022-07-26T15:54:41.527Z,12.38
2022-07-26T15:57:09.527Z,11.15
2022-07-26T15:59:36.833Z,10.20
2022-07-26T16:02:08.375Z,10.02
2022-07-26T16:04:35.978Z,18.80
2022-07-26T16:07:03.296Z,12.32
2022-07-26T16:09:30.536Z,14.25
2022-07-26T16:12:00.488Z,14.52
2022-07-26T16:14:30.190Z,12.15
2022-07-26T16:17:00.537Z,9.90
2022-07-26T16:19:28.729Z,18.90
2022-07-26T16:21:55.958Z,11.73
2022-07-26T16:24:23.191Z,14.98
2022-07-26T16:26:51.425Z,12.65
2022-07-26T16:29:19.195Z,10.63
2022-07-26T16:31:47.106Z,15.18
2022-07-26T16:34:14.769Z,14.38
2022-07-26T16:36:42.936Z,13.52
2022-07-26T16:39:10.349Z,12.65
2022-07-26T16:41:38.093Z,11.68
2022-07-26T16:44:05.777Z,14.48
2022-07-26T16:46:33.122Z,12.32
2022-07-26T16:49:00.431Z,23.88
2022-07-26T16:51:27.900Z,11.55
2022-07-26T16:53:55.369Z,13.13
2022-07-26T16:56:22.639Z,11.55
2022-07-26T16:58:49.803Z,8.15
2022-07-26T17:01:17.293Z,9.15
2022-07-26T17:03:44.605Z,9.77
2022-07-26T17:06:11.953Z,7.85
2022-07-26T17:08:41.125Z,9.10
2022-07-26T17:11:08.542Z,7.10
2022-07-26T17:13:35.794Z,9.23
2022-07-26T17:16:03.771Z,11.18
2022-07-26T17:18:31.135Z,7.78
2022-07-26T17:20:58.478Z,10.30
2022-07-26T17:23:25.715Z,10.88
2022-07-26T17:25:53.498Z,7.32
2022-07-26T17:28:20.668Z,7.32
2022-07-26T17:30:47.878Z,8.85
2022-07-26T17:33:44.467Z,8.10
2022-07-26T17:36:26.359Z,9.00
2022-07-26T17:38:54.818Z,6.68
2022-07-26T17:41:23.484Z,9.32
2022-07-26T17:44:00.015Z,6.97
2022-07-26T17:46:27.236Z,7.18
2022-07-26T17:48:54.607Z,6.85
2022-07-26T17:51:22.009Z,6.10
2022-07-26T17:53:53.288Z,6.75
2022-07-26T17:56:20.764Z,6.18
2022-07-26T17:58:47.952Z,9.23
2022-07-26T18:01:16.094Z,6.72
2022-07-26T18:03:46.781Z,6.90
2022-07-26T18:06:14.394Z,11.70
2022-07-26T18:08:42.614Z,6.60
2022-07-26T18:11:10.957Z,6.63
2022-07-26T18:13:38.892Z,6.40
2022-07-26T18:16:06.602Z,6.43
2022-07-26T18:18:38.774Z,6.38
2022-07-26T18:21:06.357Z,6.38
2022-07-26T18:23:36.886Z,6.10
2022-07-26T18:26:04.577Z,6.03
2022-07-26T18:28:31.896Z,8.25
2022-07-26T18:30:59.272Z,5.85
2022-07-26T18:33:26.596Z,9.32
2022-07-26T18:35:54.150Z,8.70
2022-07-26T18:38:21.702Z,6.72
2022-07-26T18:40:49.525Z,6.88
2022-07-26T18:43:17.083Z,7.45
2022-07-26T18:45:44.606Z,11.20
2022-07-26T18:48:11.926Z,6.43
2022-07-26T18:50:40.981Z,7.90
2022-07-26T18:53:10.911Z,7.95
2022-07-26T18:55:38.160Z,7.35
2022-07-26T18:58:07.679Z,9.70
2022-07-26T19:00:38.775Z,10.40
2022-07-26T19:03:06.310Z,12.52
2022-07-26T19:05:35.528Z,10.45
2022-07-26T19:08:04.733Z,6.90
2022-07-26T19:10:33.013Z,9.07
2022-07-26T19:13:00.494Z,8.27
2022-07-26T19:15:28.224Z,9.60
2022-07-26T19:17:55.895Z,9.25
2022-07-26T19:20:23.214Z,8.93
2022-07-26T19:22:51.411Z,9.45
2022-07-26T19:25:19.173Z,6.80
2022-07-26T19:27:46.569Z,9.70
2022-07-26T19:30:14.040Z,7.60
2022-07-26T19:32:41.527Z,8.20
2022-07-26T19:35:09.541Z,6.85
2022-07-26T19:37:36.906Z,7.43
2022-07-26T19:40:05.690Z,6.30
2022-07-26T19:42:33.361Z,7.20
2022-07-26T19:45:00.834Z,6.10
2022-07-26T19:47:30.062Z,5.30
2022-07-26T19:49:59.456Z,5.95
2022-07-26T19:52:26.839Z,7.13
2022-07-26T19:54:54.416Z,10.45
2022-07-26T19:57:21.905Z,10.32
2022-07-26T19:59:49.355Z,11.90
2022-07-26T20:02:16.932Z,9.40
2022-07-26T20:04:46.189Z,9.15
2022-07-26T20:07:19.768Z,9.98
2022-07-26T20:09:48.440Z,12.43
2022-07-26T20:12:16.592Z,10.23
2022-07-26T20:14:44.578Z,9.95
2022-07-26T20:17:13.469Z,7.60
2022-07-26T20:19:41.245Z,16.52
2022-07-26T20:22:08.656Z,10.50
2022-07-26T20:24:38.137Z,9.82
2022-07-26T20:27:08.473Z,13.00
2022-07-26T20:29:35.802Z,8.00
2022-07-26T20:32:03.473Z,9.63
2022-07-26T20:34:33.419Z,8.73
2022-07-26T20:37:02.578Z,8.25
2022-07-26T20:39:30.215Z,6.30
2022-07-26T20:41:57.420Z,7.72
2022-07-26T20:44:28.125Z,7.30
2022-07-26T20:46:56.812Z,6.70
2022-07-26T20:49:24.280Z,8.48
2022-07-26T20:51:52.243Z,8.48
2022-07-26T20:54:19.730Z,7.85
2022-07-26T20:56:47.190Z,9.48
2022-07-26T20:59:15.085Z,7.47
2022-07-26T21:01:43.936Z,7.00
2022-07-26T21:04:12.108Z,7.30
2022-07-26T21:06:39.565Z,10.10
2022-07-26T21:09:09.264Z,8.85
2022-07-26T21:11:38.918Z,6.97
2022-07-26T21:14:06.390Z,6.15
2022-07-26T21:16:33.719Z,8.48
2022-07-26T21:19:02.133Z,6.85
2022-07-26T21:21:29.473Z,8.18
2022-07-26T21:23:56.681Z,8.45
2022-07-26T21:26:24.022Z,7.47
2022-07-26T21:28:51.297Z,8.95
2022-07-26T21:31:18.637Z,8.55
2022-07-26T21:33:46.057Z,11.40
2022-07-26T21:36:14.509Z,7.80
2022-07-26T21:38:42.057Z,7.43
2022-07-26T21:41:09.566Z,9.55
2022-07-26T21:43:40.807Z,14.45
2022-07-26T21:46:12.501Z,25.42
2022-07-26T21:48:41.462Z,13.73
2022-07-26T21:51:08.976Z,22.70
2022-07-26T21:53:36.569Z,22.98
2022-07-26T21:56:05.795Z,22.38
2022-07-26T21:58:36.676Z,24.00
2022-07-26T22:01:11.212Z,18.00
2022-07-26T22:03:40.402Z,13.15
2022-07-26T22:06:08.640Z,19.52
2022-07-26T22:08:37.041Z,14.25
2022-07-26T22:11:05.180Z,16.65
2022-07-26T22:13:32.408Z,11.65
2022-07-26T22:15:59.919Z,13.82
2022-07-26T22:18:27.334Z,17.27
2022-07-26T22:20:55.579Z,10.75
2022-07-26T22:23:23.396Z,10.30
2022-07-26T22:25:50.590Z,12.75
2022-07-26T22:28:18.655Z,9.23
2022-07-26T22:30:46.817Z,8.95
2022-07-26T22:33:14.116Z,12.60
2022-07-26T22:35:41.265Z,11.85
2022-07-26T22:38:10.535Z,9.38
2022-07-26T22:40:38.911Z,11.60
2022-07-26T22:43:06.382Z,10.57
2022-07-26T22:45:33.949Z,9.55
2022-07-26T22:48:05.188Z,11.93
2022-07-26T22:50:33.178Z,11.23
2022-07-26T22:53:03.577Z,9.07
2022-07-26T22:55:31.145Z,8.55
2022-07-26T22:57:58.638Z,8.77
2022-07-26T23:00:26.253Z,10.13
2022-07-26T23:02:53.876Z,9.07
2022-07-26T23:05:21.185Z,7.13
2022-07-26T23:08:01.758Z,8.65
2022-07-26T23:10:31.076Z,7.50
2022-07-26T23:12:58.243Z,7.05
2022-07-26T23:15:25.541Z,8.25
2022-07-26T23:17:52.941Z,6.78
2022-07-26T23:20:20.505Z,9.30
2022-07-26T23:22:47.771Z,9.50
2022-07-26T23:25:15.093Z,8.60
2022-07-26T23:27:42.235Z,9.18
2022-07-26T23:30:09.702Z,12.82
2022-07-26T23:32:37.029Z,11.38
2022-07-26T23:35:05.508Z,9.77
2022-07-26T23:37:32.817Z,10.07
2022-07-26T23:40:00.413Z,7.65
2022-07-26T23:42:27.508Z,8.27
2022-07-26T23:44:54.895Z,9.10
2022-07-26T23:47:22.159Z,9.65
2022-07-26T23:49:49.306Z,9.63
2022-07-26T23:52:16.806Z,10.88
2022-07-26T23:54:44.097Z,9.82
2022-07-26T23:57:11.482Z,12.82
2022-07-26T23:59:39.004Z,10.38
